Time;durP1;ratioP1;P1;durP2;ratioP2;P2;SDS_P1;SDS_P2;PMS_P1;PMS_P2;Temp;Humidity;BMP_temperature;BMP_pressure;BME280_temperature;BME280_humidity;BME280_pressure;Samples;Min_cycle;Max_cycle;Signal;HPM_P1;HPM_P2
2023/01/02 00:01:14;;;;;;;;;;;;;;;17.27;49.81;102253.09;5091120;28;1210;-58
2023/01/02 00:03:39;;;;;;;;;;;;;;;16.66;50.90;102255.28;5097671;28;1135;-51
2023/01/02 00:06:05;;;;;;;;;;;;;;;16.10;52.48;102253.84;5084547;28;1050;-57
2023/01/02 00:08:30;;;;;;;;;;;;;;;15.83;53.13;102248.75;5090964;28;1043;-51
2023/01/02 00:10:56;;;;;;;;;;;;;;;16.39;52.16;102252.94;5090643;28;1035;-51
2023/01/02 00:13:21;;;;;;;;;;;;;;;17.37;49.38;102252.47;5090583;28;1985;-58
2023/01/02 00:15:46;;;;;;;;;;;;;;;16.33;51.80;102251.16;5077204;28;1011;-56
2023/01/02 00:18:12;;;;;;;;;;;;;;;15.98;52.85;102246.41;5076992;28;1019;-54
2023/01/02 00:20:37;;;;;;;;;;;;;;;15.72;53.27;102240.22;5081557;28;1363;-53
2023/01/02 00:23:03;;;;;;;;;;;;;;;16.66;51.52;102249.78;5083157;28;1133;-56
2023/01/02 00:25:28;;;;;;;;;;;;;;;16.86;50.54;102245.84;5097204;28;1035;-56
2023/01/02 00:27:55;;;;;;;;;;;;;;;16.17;52.32;102238.13;5096965;28;1062;-56
2023/01/02 00:30:20;;;;;;;;;;;;;;;15.83;53.18;102244.09;5097192;28;1109;-56
2023/01/02 00:32:46;;;;;;;;;;;;;;;15.67;53.31;102240.06;5091778;28;1895;-55
2023/01/02 00:35:11;;;;;;;;;;;;;;;16.12;52.60;102243.47;5077268;28;1035;-51
2023/01/02 00:37:36;;;;;;;;;;;;;;;17.37;49.51;102235.16;5095899;28;1071;-55
2023/01/02 00:40:02;;;;;;;;;;;;;;;16.32;51.76;102233.00;5096852;28;1307;-56
2023/01/02 00:42:28;;;;;;;;;;;;;;;15.91;52.81;102229.22;5097291;28;1049;-56
2023/01/02 00:44:54;;;;;;;;;;;;;;;15.69;53.42;102226.13;5085261;28;1122;-56
2023/01/02 00:47:19;;;;;;;;;;;;;;;15.52;53.80;102224.03;5082585;28;1138;-57
2023/01/02 00:49:45;;;;;;;;;;;;;;;15.62;53.53;102219.91;5096635;28;1105;-56
2023/01/02 00:52:10;;;;;;;;;;;;;;;17.18;50.07;102217.97;5097072;28;2000;-56
2023/01/02 00:54:36;;;;;;;;;;;;;;;16.67;50.86;102214.91;5096988;28;1054;-55
2023/01/02 00:57:01;;;;;;;;;;;;;;;16.08;52.76;102221.16;5091234;28;1117;-56
2023/01/02 00:59:26;;;;;;;;;;;;;;;15.79;53.08;102226.44;5076626;28;1003;-56
2023/01/02 01:01:52;;;;;;;;;;;;;;;16.64;51.59;102224.44;5076644;28;1055;-56
2023/01/02 01:04:17;;;;;;;;;;;;;;;16.96;50.29;102212.25;5076862;28;1011;-57
2023/01/02 01:06:43;;;;;;;;;;;;;;;16.16;52.19;102212.59;5089851;28;1133;-55
2023/01/02 01:09:08;;;;;;;;;;;;;;;15.86;52.92;102218.09;5088846;28;1125;-56
2023/01/02 01:11:33;;;;;;;;;;;;;;;15.68;53.26;102211.59;5096350;28;1158;-55
2023/01/02 01:13:59;;;;;;;;;;;;;;;15.58;53.59;102205.81;5096186;28;1901;-56
2023/01/02 01:16:25;;;;;;;;;;;;;;;17.18;50.09;102198.72;5096367;28;1015;-56
2023/01/02 01:18:53;;;;;;;;;;;;;;;16.65;51.00;102200.56;5084660;28;1197;-56
2023/01/02 01:21:19;;;;;;;;;;;;;;;16.03;52.59;102205.41;5090370;28;1109;-56
2023/01/02 01:23:48;;;;;;;;;;;;;;;15.79;53.22;102203.63;5076043;28;1050;-55
2023/01/02 01:26:14;;;;;;;;;;;;;;;16.46;51.77;102199.84;5081443;28;1075;-56
2023/01/02 01:28:39;;;;;;;;;;;;;;;17.19;49.51;102192.16;5084517;28;1188;-56
2023/01/02 01:31:06;;;;;;;;;;;;;;;16.23;51.93;102194.09;5081182;28;1074;-56
2023/01/02 01:33:31;;;;;;;;;;;;;;;15.91;52.79;102196.31;5096194;28;1906;-55
2023/01/02 01:36:03;;;;;;;;;;;;;;;15.72;53.41;102199.09;5095962;28;1061;-55
2023/01/02 01:38:29;;;;;;;;;;;;;;;16.85;51.01;102194.72;5083472;28;1212;-56
2023/01/02 01:40:55;;;;;;;;;;;;;;;16.72;50.77;102188.38;5082346;28;1152;-54
2023/01/02 01:43:35;;;;;;;;;;;;;;;16.08;52.47;102189.06;5096615;28;1121;-55
2023/01/02 01:46:01;;;;;;;;;;;;;;;15.80;52.93;102186.13;5076306;28;1094;-54
2023/01/02 01:48:26;;;;;;;;;;;;;;;15.71;53.40;102180.94;5090930;28;1151;-57
2023/01/02 01:50:52;;;;;;;;;;;;;;;17.29;49.38;102181.34;5095089;28;902;-57
2023/01/02 01:53:17;;;;;;;;;;;;;;;16.67;50.75;102181.94;5095195;28;1913;-57
2023/01/02 01:55:49;;;;;;;;;;;;;;;16.12;52.15;102180.34;5100074;28;1121;-57
2023/01/02 01:58:16;;;;;;;;;;;;;;;15.83;53.17;102182.94;5093084;28;1018;-57
2023/01/02 02:00:41;;;;;;;;;;;;;;;15.62;53.24;102182.34;5076182;28;1097;-57
2023/01/02 02:03:10;;;;;;;;;;;;;;;15.70;53.47;102182.00;5090199;28;905;-57
2023/01/02 02:05:36;;;;;;;;;;;;;;;17.28;49.50;102172.28;5085654;28;1095;-57
2023/01/02 02:08:25;;;;;;;;;;;;;;;16.77;50.67;102171.16;5076015;28;1093;-57
2023/01/02 02:10:50;;;;;;;;;;;;;;;16.06;52.34;102165.66;5073085;28;1165;-57
2023/01/02 02:13:16;;;;;;;;;;;;;;;15.81;53.16;102157.63;5095040;28;1985;-57
2023/01/02 02:15:51;;;;;;;;;;;;;;;15.63;53.46;102161.25;5095804;28;1046;-57
2023/01/02 02:18:17;;;;;;;;;;;;;;;15.60;53.63;102162.56;5089292;28;1070;-57
2023/01/02 02:20:45;;;;;;;;;;;;;;;17.22;49.69;102161.44;5089552;28;1090;-57
2023/01/02 02:23:29;;;;;;;;;;;;;;;16.59;50.96;102153.78;5094524;28;1154;-57
2023/01/02 02:25:58;;;;;;;;;;;;;;;15.97;52.84;102156.13;5092318;28;1050;-57
2023/01/02 02:28:27;;;;;;;;;;;;;;;15.73;53.03;102156.84;5074740;28;1082;-57
2023/01/02 02:31:11;;;;;;;;;;;;;;;16.77;51.06;102161.03;5092675;28;1054;-57
2023/01/02 02:33:36;;;;;;;;;;;;;;;16.78;50.70;102153.63;5081877;28;2370;-57
2023/01/02 02:36:03;;;;;;;;;;;;;;;16.12;52.10;102159.25;5081383;28;1018;-57
2023/01/02 02:38:32;;;;;;;;;;;;;;;15.85;52.94;102156.09;5083488;28;1146;-57
2023/01/02 02:41:05;;;;;;;;;;;;;;;15.62;53.24;102160.41;5104861;28;1292;-57
2023/01/02 02:43:33;;;;;;;;;;;;;;;17.14;49.95;102150.81;5091188;28;1134;-57
2023/01/02 02:46:13;;;;;;;;;;;;;;;16.69;50.97;102153.16;5099550;28;1022;-57
2023/01/02 02:48:44;;;;;;;;;;;;;;;16.04;52.65;102163.16;5084695;28;1162;-57
2023/01/02 02:51:12;;;;;;;;;;;;;;;15.79;53.15;102159.75;5098770;28;903;-57
2023/01/02 02:53:40;;;;;;;;;;;;;;;16.19;52.39;102159.16;5085314;28;1976;-57
2023/01/02 02:56:05;;;;;;;;;;;;;;;17.20;49.68;102152.59;5098254;28;1023;-57
2023/01/02 02:58:31;;;;;;;;;;;;;;;16.23;51.94;102163.91;5093751;28;1130;-57
2023/01/02 03:01:15;;;;;;;;;;;;;;;15.88;52.93;102147.41;5105959;28;1099;-57
2023/01/02 03:03:41;;;;;;;;;;;;;;;16.14;52.59;102165.31;5085531;28;987;-53
2023/01/02 03:06:09;;;;;;;;;;;;;;;17.38;49.27;102152.41;5099021;28;1086;-55
2023/01/02 03:08:53;;;;;;;;;;;;;;;16.30;51.78;102165.69;5079094;28;1094;-53
2023/01/02 03:11:18;;;;;;;;;;;;;;;15.89;52.77;102160.03;5081390;28;1117;-55
2023/01/02 03:13:54;;;;;;;;;;;;;;;16.31;51.89;102168.19;5097157;28;1909;-55
2023/01/02 03:16:29;;;;;;;;;;;;;;;17.00;49.99;102164.00;5096081;28;1031;-55
2023/01/02 03:19:07;;;;;;;;;;;;;;;16.14;52.13;102167.25;5098832;28;1035;-53
2023/01/02 03:21:39;;;;;;;;;;;;;;;15.81;52.87;102180.41;5078934;28;1181;-57
2023/01/02 03:24:05;;;;;;;;;;;;;;;15.60;53.42;102170.78;5108442;28;1091;-57
2023/01/02 03:26:31;;;;;;;;;;;;;;;16.16;52.28;102179.66;5090040;28;1143;-57
2023/01/02 03:28:58;;;;;;;;;;;;;;;17.43;49.12;102174.50;5078804;28;1010;-57
2023/01/02 03:31:24;;;;;;;;;;;;;;;16.37;51.62;102178.25;5097624;28;1107;-57
2023/01/02 03:33:50;;;;;;;;;;;;;;;15.92;52.45;102176.00;5098567;28;1990;-56
2023/01/02 03:36:17;;;;;;;;;;;;;;;15.64;53.04;102176.63;5098280;28;1046;-56
2023/01/02 03:38:43;;;;;;;;;;;;;;;17.09;49.80;102177.13;5096401;28;1030;-56
2023/01/02 03:41:10;;;;;;;;;;;;;;;16.65;50.99;102173.94;5098355;28;1247;-57
2023/01/02 03:43:36;;;;;;;;;;;;;;;16.07;52.06;102173.69;5097175;28;1058;-57
2023/01/02 03:46:24;;;;;;;;;;;;;;;15.79;52.90;102170.72;5089758;28;1127;-57
2023/01/02 03:49:15;;;;;;;;;;;;;;;15.56;53.13;102166.84;5111064;28;1134;-57
2023/01/02 03:51:40;;;;;;;;;;;;;;;16.66;50.95;102172.03;5086874;28;1490;-57
2023/01/02 03:54:06;;;;;;;;;;;;;;;17.16;49.60;102167.91;5096594;28;1909;-57
2023/01/02 03:56:46;;;;;;;;;;;;;;;16.21;51.89;102166.03;5083999;28;1193;-57
2023/01/02 03:59:41;;;;;;;;;;;;;;;15.81;52.95;102169.44;5097794;28;1117;-57
2023/01/02 04:02:22;;;;;;;;;;;;;;;15.58;53.28;102178.38;5073937;28;1759;-52
2023/01/02 04:04:55;;;;;;;;;;;;;;;17.02;50.22;102181.91;5078191;28;1051;-54
2023/01/02 04:07:23;;;;;;;;;;;;;;;16.88;50.27;102178.59;5087470;28;853;-54
2023/01/02 04:09:49;;;;;;;;;;;;;;;16.16;52.22;102176.06;5081574;28;1002;-55
2023/01/02 04:12:15;;;;;;;;;;;;;;;15.84;52.73;102184.59;5076217;28;1966;-53
2023/01/02 04:14:47;;;;;;;;;;;;;;;16.40;51.87;102183.25;5092089;28;1055;-52
2023/01/02 04:17:13;;;;;;;;;;;;;;;16.98;50.14;102177.97;5096362;28;1090;-52
2023/01/02 04:20:14;;;;;;;;;;;;;;;16.18;51.99;102184.91;5083225;28;1167;-55
2023/01/02 04:22:50;;;;;;;;;;;;;;;15.82;52.80;102187.59;5002070;28;1339;-54
2023/01/02 04:25:16;;;;;;;;;;;;;;;15.57;53.15;102184.94;5075592;28;1185;-51
2023/01/02 04:27:55;;;;;;;;;;;;;;;15.66;53.45;102191.78;5076990;28;1035;-52
2023/01/02 04:30:20;;;;;;;;;;;;;;;17.36;49.29;102181.22;5077627;28;1031;-56
2023/01/02 04:32:46;;;;;;;;;;;;;;;16.50;51.25;102192.81;5095853;28;1901;-53
2023/01/02 04:35:15;;;;;;;;;;;;;;;15.99;52.61;102189.63;5095728;28;1070;-53
2023/01/02 04:37:41;;;;;;;;;;;;;;;15.71;53.01;102197.41;5095420;28;1118;-54
2023/01/02 04:40:08;;;;;;;;;;;;;;;15.71;53.31;102199.28;5096689;28;1265;-49
2023/01/02 04:42:34;;;;;;;;;;;;;;;17.30;49.51;102188.53;5090705;28;1094;-51
2023/01/02 04:44:59;;;;;;;;;;;;;;;16.55;50.95;102192.91;5089391;28;1119;-52
2023/01/02 04:47:25;;;;;;;;;;;;;;;16.03;52.23;102190.84;5091181;28;1237;-54
2023/01/02 04:49:50;;;;;;;;;;;;;;;15.73;53.04;102192.50;5089003;28;1143;-50
2023/01/02 04:52:16;;;;;;;;;;;;;;;16.50;51.18;102188.16;5095075;28;1913;-50
2023/01/02 04:54:41;;;;;;;;;;;;;;;17.22;49.42;102189.78;5096009;28;1058;-51
2023/01/02 04:57:06;;;;;;;;;;;;;;;16.23;51.78;102194.09;5096257;28;1197;-47
2023/01/02 04:59:32;;;;;;;;;;;;;;;15.90;52.57;102194.63;5096850;28;1472;-47
2023/01/02 05:01:57;;;;;;;;;;;;;;;15.69;53.17;102198.69;5082270;28;1194;-47
2023/01/02 05:04:23;;;;;;;;;;;;;;;15.69;53.19;102194.03;5094178;28;861;-52
2023/01/02 05:06:48;;;;;;;;;;;;;;;17.23;49.60;102188.66;5095635;28;1062;-49
2023/01/02 05:09:15;;;;;;;;;;;;;;;16.48;51.33;102197.69;5095758;28;1260;-54
2023/01/02 05:11:41;;;;;;;;;;;;;;;15.96;52.59;102193.69;5095225;28;1113;-53
2023/01/02 05:14:07;;;;;;;;;;;;;;;15.71;53.12;102194.66;5095503;28;1914;-52
2023/01/02 05:16:32;;;;;;;;;;;;;;;15.49;53.56;102199.00;5095681;28;1118;-51
2023/01/02 05:18:57;;;;;;;;;;;;;;;16.87;50.44;102193.41;5096579;28;1074;-49
2023/01/02 05:24:07;;;;;;;;;;;;;;;16.05;52.13;102196.94;5096698;28;1066;-59
2023/01/02 05:26:32;;;;;;;;;;;;;;;15.73;52.90;102200.75;5096089;28;1074;-60
2023/01/02 05:28:58;;;;;;;;;;;;;;;15.85;52.87;102208.19;5095716;28;891;-59
2023/01/02 05:31:23;;;;;;;;;;;;;;;17.40;48.80;102202.50;5096705;28;1090;-59
2023/01/02 05:33:52;;;;;;;;;;;;;;;16.46;51.20;102208.09;5096362;28;1914;-59
2023/01/02 05:36:18;;;;;;;;;;;;;;;15.98;52.33;102205.28;5096855;28;1078;-60
2023/01/02 05:38:43;;;;;;;;;;;;;;;15.72;52.89;102204.56;5096631;28;1174;-60
2023/01/02 05:41:08;;;;;;;;;;;;;;;15.53;53.20;102205.69;5095634;28;1098;-62
2023/01/02 05:43:35;;;;;;;;;;;;;;;15.98;52.42;102210.75;5096698;28;1118;-62
2023/01/02 05:46:13;;;;;;;;;;;;;;;17.31;49.00;102203.97;5095955;28;1065;-62
2023/01/02 05:48:38;;;;;;;;;;;;;;;16.22;51.62;102205.31;5095929;28;1035;-59
2023/01/02 05:51:04;;;;;;;;;;;;;;;15.82;52.75;102208.66;5096363;28;1170;-60
2023/01/02 05:53:30;;;;;;;;;;;;;;;15.61;53.11;102208.06;5096003;28;1976;-62
2023/01/02 05:56:02;;;;;;;;;;;;;;;17.18;49.38;102215.22;5095692;28;984;-62
2023/01/02 05:58:29;;;;;;;;;;;;;;;16.52;50.73;102207.97;5081448;28;1065;-55
2023/01/02 06:00:54;;;;;;;;;;;;;;;15.98;52.38;102213.50;5083850;28;1157;-55
2023/01/02 06:03:20;;;;;;;;;;;;;;;15.77;52.55;102211.22;5093969;28;1033;-56
2023/01/02 06:05:45;;;;;;;;;;;;;;;15.53;53.17;102217.47;5076233;28;1058;-55
2023/01/02 06:08:11;;;;;;;;;;;;;;;15.75;53.08;102225.19;5077093;28;1109;-56
2023/01/02 06:10:36;;;;;;;;;;;;;;;17.29;49.16;102225.34;5096087;28;1133;-56
2023/01/02 06:13:01;;;;;;;;;;;;;;;16.50;51.04;102225.78;5096060;28;1932;-55
2023/01/02 06:15:27;;;;;;;;;;;;;;;15.99;52.40;102228.91;5096028;28;1038;-56
2023/01/02 06:17:52;;;;;;;;;;;;;;;15.76;52.64;102226.03;5096810;28;1007;-56
2023/01/02 06:20:18;;;;;;;;;;;;;;;15.53;53.15;102233.09;5092038;28;1134;-56
2023/01/02 06:22:43;;;;;;;;;;;;;;;16.76;50.32;102240.94;5096092;28;1213;-53
2023/01/02 06:25:09;;;;;;;;;;;;;;;17.69;47.91;102238.25;5089765;28;1173;-57
2023/01/02 06:27:34;;;;;;;;;;;;;;;16.43;50.31;102236.84;5095378;28;1019;-57
2023/01/02 06:29:59;;;;;;;;;;;;;;;17.37;49.12;102230.47;5099629;28;1146;-57
2023/01/02 06:32:25;;;;;;;;;;;;;;;16.99;49.32;102223.63;5099484;28;1909;-58
2023/01/02 06:34:50;;;;;;;;;;;;;;;16.31;49.71;102228.59;5090153;28;1193;-56
2023/01/02 06:37:16;;;;;;;;;;;;;;;17.21;49.60;102231.25;5095820;28;1173;-57
2023/01/02 06:39:41;;;;;;;;;;;;;;;16.41;50.11;102228.84;5098907;28;1215;-55
2023/01/02 06:42:07;;;;;;;;;;;;;;;18.08;47.69;102238.47;5096286;28;1062;-56
2023/01/02 06:44:32;;;;;;;;;;;;;;;17.87;47.91;102234.47;5088969;28;1138;-52
2023/01/02 06:46:59;;;;;;;;;;;;;;;17.04;49.60;102231.13;5099612;28;1062;-56
2023/01/02 06:49:24;;;;;;;;;;;;;;;18.75;46.17;102228.53;5089711;28;1153;-57
2023/01/02 06:51:49;;;;;;;;;;;;;;;17.50;48.54;102234.03;5091885;28;1074;-59
2023/01/02 06:54:15;;;;;;;;;;;;;;;17.62;49.11;102245.81;5088940;28;1901;-61
2023/01/02 06:56:40;;;;;;;;;;;;;;;18.43;46.62;102231.88;5096010;28;1073;-60
2023/01/02 06:59:06;;;;;;;;;;;;;;;17.11;49.07;102240.13;5088885;28;1135;-60
2023/01/02 07:01:31;;;;;;;;;;;;;;;17.53;48.90;102233.53;5098801;28;1086;-60
2023/01/02 07:03:57;;;;;;;;;;;;;;;17.30;48.93;102240.78;5089299;28;1189;-60
2023/01/02 07:06:22;;;;;;;;;;;;;;;16.77;48.84;102239.84;5095648;28;1154;-58
2023/01/02 07:08:48;;;;;;;;;;;;;;;18.06;47.96;102237.88;5098754;28;998;-58
2023/01/02 07:11:14;;;;;;;;;;;;;;;16.98;49.22;102238.44;5081611;28;1138;-58
2023/01/02 07:13:40;;;;;;;;;;;;;;;17.22;49.34;102239.25;5078496;28;1974;-59
2023/01/02 07:16:06;;;;;;;;;;;;;;;17.35;49.20;102235.38;5091912;28;1138;-59
2023/01/02 07:18:32;;;;;;;;;;;;;;;17.21;50.17;102237.56;5089070;28;1051;-59
2023/01/02 07:20:57;;;;;;;;;;;;;;;18.96;45.96;102235.19;5096764;28;1173;-59
2023/01/02 07:23:23;;;;;;;;;;;;;;;17.41;48.58;102239.91;5089618;28;1189;-58
2023/01/02 07:25:52;;;;;;;;;;;;;;;16.97;48.24;102245.03;5080276;28;1069;-59
2023/01/02 07:28:17;;;;;;;;;;;;;;;17.33;48.91;102234.78;5098198;28;1054;-56
2023/01/02 07:30:43;;;;;;;;;;;;;;;17.41;48.98;102241.81;5098308;28;1257;-56
2023/01/02 07:33:08;;;;;;;;;;;;;;;17.87;48.85;102231.72;5098065;28;1898;-56
2023/01/02 07:35:34;;;;;;;;;;;;;;;19.33;45.44;102239.25;5098315;28;1082;-56
2023/01/02 07:37:59;;;;;;;;;;;;;;;17.77;48.24;102239.78;5098463;28;1480;-56
2023/01/02 07:40:25;;;;;;;;;;;;;;;17.20;48.31;102235.06;5097188;28;1112;-56
2023/01/02 07:42:50;;;;;;;;;;;;;;;18.27;47.85;102240.97;5098090;28;1054;-56
2023/01/02 07:45:16;;;;;;;;;;;;;;;17.19;49.12;102238.88;5085037;28;1205;-56
2023/01/02 07:47:41;;;;;;;;;;;;;;;17.61;49.33;102238.66;5098249;28;1013;-56
2023/01/02 07:50:06;;;;;;;;;;;;;;;17.90;48.49;102244.16;5098460;28;1058;-56
2023/01/02 07:52:32;;;;;;;;;;;;;;;17.16;48.70;102234.72;5097542;28;1905;-56
2023/01/02 07:54:57;;;;;;;;;;;;;;;18.67;47.03;102241.91;5097626;28;1077;-56
2023/01/02 07:57:23;;;;;;;;;;;;;;;17.53;48.90;102244.53;5089469;28;1138;-56
2023/01/02 07:59:50;;;;;;;;;;;;;;;17.12;48.35;102236.25;5079968;28;1409;-56
2023/01/02 08:02:15;;;;;;;;;;;;;;;18.05;48.19;102238.13;5089672;28;1173;-56
2023/01/02 08:04:40;;;;;;;;;;;;;;;17.17;48.82;102239.13;5090957;28;1127;-55
2023/01/02 08:07:06;;;;;;;;;;;;;;;17.77;48.85;102234.28;5086370;28;1102;-58
2023/01/02 08:09:32;;;;;;;;;;;;;;;17.70;48.91;102239.13;5082568;28;1151;-60
2023/01/02 08:11:57;;;;;;;;;;;;;;;17.54;49.03;102237.97;5098065;28;1174;-59
2023/01/02 08:14:23;;;;;;;;;;;;;;;19.18;45.77;102237.16;5097280;28;1995;-53
2023/01/02 08:16:48;;;;;;;;;;;;;;;17.68;48.32;102246.75;5096971;28;1030;-56
2023/01/02 08:19:13;;;;;;;;;;;;;;;17.20;48.17;102237.81;5083016;28;1110;-57
2023/01/02 08:21:39;;;;;;;;;;;;;;;18.35;47.77;102235.06;5090124;28;1037;-52
2023/01/02 08:24:06;;;;;;;;;;;;;;;17.35;48.93;102243.63;5091419;28;1165;-55
2023/01/02 08:26:32;;;;;;;;;;;;;;;17.16;48.69;102239.38;5089227;28;1209;-58
2023/01/02 08:28:58;;;;;;;;;;;;;;;17.98;48.40;102234.69;5078674;28;1050;-57
2023/01/02 08:31:23;;;;;;;;;;;;;;;17.16;48.91;102231.97;5089179;28;1030;-53
2023/01/02 08:33:49;;;;;;;;;;;;;;;18.31;48.08;102231.13;5092091;28;2008;-58
2023/01/02 08:36:16;;;;;;;;;;;;;;;17.61;48.79;102233.13;5088815;28;1230;-57
2023/01/02 08:38:41;;;;;;;;;;;;;;;17.18;48.36;102223.47;5077181;28;1106;-58
2023/01/02 08:41:07;;;;;;;;;;;;;;;17.01;47.98;102220.63;5075885;28;1126;-59
2023/01/02 08:43:33;;;;;;;;;;;;;;;17.85;48.60;102216.53;5090226;28;1205;-56
2023/01/02 08:46:01;;;;;;;;;;;;;;;17.09;49.02;102220.25;5076501;28;1007;-59
2023/01/02 08:48:26;;;;;;;;;;;;;;;18.87;46.86;102219.31;5090450;28;1131;-58
2023/01/02 08:50:52;;;;;;;;;;;;;;;18.08;48.12;102210.94;5085627;28;1047;-59
2023/01/02 08:53:17;;;;;;;;;;;;;;;17.33;48.74;102210.03;5096453;28;1912;-56
2023/01/02 08:55:43;;;;;;;;;;;;;;;17.12;48.02;102207.97;5096367;28;998;-59
2023/01/02 08:58:08;;;;;;;;;;;;;;;16.93;47.47;102200.69;5084017;28;1141;-54
2023/01/02 09:00:33;;;;;;;;;;;;;;;17.97;48.16;102195.31;5088329;28;1094;-60
2023/01/02 09:02:59;;;;;;;;;;;;;;;17.10;48.74;102187.03;5090211;28;1151;-62
2023/01/02 09:05:26;;;;;;;;;;;;;;;18.34;48.00;102188.50;5077203;28;1099;-58
2023/01/02 09:07:51;;;;;;;;;;;;;;;17.90;48.55;102183.63;5076473;28;1026;-61
2023/01/02 09:10:17;;;;;;;;;;;;;;;17.29;48.83;102181.34;5076591;28;995;-60
2023/01/02 09:12:42;;;;;;;;;;;;;;;18.23;48.15;102181.97;5092454;28;1917;-57
2023/01/02 09:15:08;;;;;;;;;;;;;;;17.33;48.89;102185.28;5096340;28;1081;-57
2023/01/02 09:17:33;;;;;;;;;;;;;;;17.65;49.56;102176.56;5095828;28;1050;-58
2023/01/02 09:19:59;;;;;;;;;;;;;;;17.94;48.46;102173.81;5088344;28;1118;-57
2023/01/02 09:22:24;;;;;;;;;;;;;;;17.23;48.88;102168.59;5078419;28;1138;-57
2023/01/02 09:24:50;;;;;;;;;;;;;;;17.51;49.17;102162.28;5089026;28;1189;-59
2023/01/02 09:27:15;;;;;;;;;;;;;;;17.51;48.66;102155.94;5089768;28;1122;-50
2023/01/02 09:29:41;;;;;;;;;;;;;;;17.26;49.32;102141.47;5076081;28;909;-58
2023/01/02 09:32:06;;;;;;;;;;;;;;;18.44;47.62;102152.88;5076915;28;1039;-58
2023/01/02 09:34:31;;;;;;;;;;;;;;;17.40;48.92;102147.50;5089337;28;1217;-59
2023/01/02 09:36:57;;;;;;;;;;;;;;;17.07;48.22;102146.31;5076309;28;1085;-57
2023/01/02 09:39:22;;;;;;;;;;;;;;;17.65;48.78;102143.56;5083207;28;1123;-58
2023/01/02 09:41:57;;;;;;;;;;;;;;;17.47;49.27;102130.03;5095867;28;1065;-59
2023/01/02 09:44:31;;;;;;;;;;;;;;;17.19;48.68;102124.25;5086882;28;1182;-56
2023/01/02 09:46:59;;;;;;;;;;;;;;;18.09;48.38;102132.78;5107493;28;1118;-59
2023/01/02 09:49:45;;;;;;;;;;;;;;;17.17;49.21;102120.13;5087025;28;1112;-57
2023/01/02 09:52:21;;;;;;;;;;;;;;;17.11;49.22;102121.94;5081339;28;2067;-61
2023/01/02 09:54:46;;;;;;;;;;;;;;;17.67;48.94;102126.78;5078606;28;924;-60
2023/01/02 09:57:17;;;;;;;;;;;;;;;17.17;48.79;102109.13;5092556;28;968;-59
2023/01/02 09:59:43;;;;;;;;;;;;;;;17.76;49.09;102111.56;5093960;28;1079;-58
2023/01/02 10:02:13;;;;;;;;;;;;;;;17.43;48.95;102114.03;5099697;28;1062;-60
2023/01/02 10:04:44;;;;;;;;;;;;;;;17.03;48.72;102111.31;5086526;28;1126;-59
2023/01/02 10:07:15;;;;;;;;;;;;;;;17.97;48.36;102115.50;5088626;28;857;-58
2023/01/02 10:09:53;;;;;;;;;;;;;;;17.16;48.91;102112.94;5081460;28;1016;-58
2023/01/02 10:12:27;;;;;;;;;;;;;;;17.55;49.33;102104.88;5090881;28;1909;-58
2023/01/02 10:14:53;;;;;;;;;;;;;;;17.44;48.95;102110.16;5086230;28;1098;-58
2023/01/02 10:17:18;;;;;;;;;;;;;;;17.05;48.69;102100.91;5098923;28;944;-58
2023/01/02 10:19:46;;;;;;;;;;;;;;;18.35;47.79;102096.53;5097632;28;1090;-58
2023/01/02 10:22:12;;;;;;;;;;;;;;;17.39;48.75;102101.84;5086761;28;1002;-58
2023/01/02 10:24:45;;;;;;;;;;;;;;;18.51;47.84;102094.81;5100892;28;1082;-58
2023/01/02 10:27:12;;;;;;;;;;;;;;;17.98;48.38;102091.56;5085191;28;1109;-58
2023/01/02 10:29:39;;;;;;;;;;;;;;;17.30;48.81;102075.81;5097788;28;1063;-58
2023/01/02 10:32:30;;;;;;;;;;;;;;;17.12;48.12;102084.28;5090894;28;1075;-58
2023/01/02 10:35:05;;;;;;;;;;;;;;;17.92;48.43;102076.91;5093091;28;1584;-58
2023/01/02 10:37:30;;;;;;;;;;;;;;;17.07;48.94;102077.59;5085278;28;1134;-58
2023/01/02 10:39:56;;;;;;;;;;;;;;;18.64;47.50;102066.91;5084557;28;1228;-59
2023/01/02 10:42:21;;;;;;;;;;;;;;;17.99;48.58;102066.53;5084731;28;1133;-58
2023/01/02 10:44:47;;;;;;;;;;;;;;;17.34;48.89;102067.91;5114404;28;1015;-60
2023/01/02 10:47:16;;;;;;;;;;;;;;;17.16;48.30;102068.97;5085445;28;1166;-59
2023/01/02 10:49:42;;;;;;;;;;;;;;;17.44;48.63;102063.41;5094438;28;995;-59
2023/01/02 10:52:17;;;;;;;;;;;;;;;17.33;49.22;102064.31;5091633;28;1171;-57
2023/01/02 10:54:52;;;;;;;;;;;;;;;17.01;49.10;102045.63;5078052;28;892;-55
2023/01/02 10:57:27;;;;;;;;;;;;;;;18.08;48.06;102054.03;5095566;28;972;-55
2023/01/02 10:59:59;;;;;;;;;;;;;;;17.14;49.35;102049.13;5098532;28;1045;-55
2023/01/02 11:02:25;;;;;;;;;;;;;;;17.06;48.81;102048.44;5098634;28;1010;-56
2023/01/02 11:04:51;;;;;;;;;;;;;;;17.94;48.53;102047.22;5097877;28;1022;-56
2023/01/02 11:07:22;;;;;;;;;;;;;;;17.23;49.13;102033.91;5098094;28;1062;-56
2023/01/02 11:09:52;;;;;;;;;;;;;;;17.64;49.24;102037.34;5084384;28;1051;-57
2023/01/02 11:12:18;;;;;;;;;;;;;;;17.51;49.09;102029.44;5107620;28;1980;-56
2023/01/02 11:14:43;;;;;;;;;;;;;;;17.11;48.93;102028.50;5078325;28;987;-56
2023/01/02 11:17:10;;;;;;;;;;;;;;;18.08;48.50;102036.69;5097338;28;1115;-49
2023/01/02 11:19:43;;;;;;;;;;;;;;;17.42;49.08;102029.03;5091743;28;983;-55
2023/01/02 11:22:09;;;;;;;;;;;;;;;17.01;48.67;102018.13;5093983;28;1085;-53
2023/01/02 11:24:34;;;;;;;;;;;;;;;17.88;48.53;102024.25;5096584;28;1105;-50
2023/01/02 11:27:00;;;;;;;;;;;;;;;17.11;49.28;102017.50;5097009;28;1051;-54
2023/01/02 11:29:31;;;;;;;;;;;;;;;18.33;47.85;102016.94;5082902;28;1158;-47
2023/01/02 11:31:58;;;;;;;;;;;;;;;17.94;48.55;102011.44;5093394;28;891;-52
2023/01/02 11:34:24;;;;;;;;;;;;;;;17.30;48.77;102009.84;5082705;28;1913;-52
2023/01/02 11:37:00;;;;;;;;;;;;;;;17.45;49.29;102006.53;5083795;28;1118;-52
2023/01/02 11:39:25;;;;;;;;;;;;;;;17.47;48.97;102003.53;5085272;28;1241;-49
2023/01/02 11:44:43;;;;;;;;;;;;;;;18.20;48.22;102004.38;5096679;28;1051;-58
2023/01/02 11:47:08;;;;;;;;;;;;;;;17.33;48.81;101998.34;5093212;28;1034;-58
2023/01/02 11:49:39;;;;;;;;;;;;;;;17.00;48.48;101991.72;5077797;28;1085;-59
2023/01/02 11:52:04;;;;;;;;;;;;;;;17.82;48.29;102002.41;5108715;28;920;-56
2023/01/02 11:54:33;;;;;;;;;;;;;;;17.17;48.77;101997.25;5095848;28;1996;-56
2023/01/02 11:56:59;;;;;;;;;;;;;;;18.63;47.48;101993.59;5091717;28;1031;-54
2023/01/02 11:59:30;;;;;;;;;;;;;;;17.95;48.69;102000.19;5077078;28;1073;-57
2023/01/02 12:01:58;;;;;;;;;;;;;;;17.31;48.75;101996.94;5094803;28;1440;-55
2023/01/02 12:04:23;;;;;;;;;;;;;;;17.06;48.08;101987.97;5097336;28;1023;-56
2023/01/02 12:06:52;;;;;;;;;;;;;;;17.19;48.43;101988.75;5096400;28;1015;-57
2023/01/02 12:09:24;;;;;;;;;;;;;;;17.41;48.95;101988.84;5096220;28;1019;-55
2023/01/02 12:11:50;;;;;;;;;;;;;;;16.97;48.61;101986.75;5075821;28;1188;-56
2023/01/02 12:14:17;;;;;;;;;;;;;;;16.90;48.27;101980.53;5076972;28;1986;-56
2023/01/02 12:16:53;;;;;;;;;;;;;;;17.87;48.47;101986.00;5082773;28;1027;-56
2023/01/02 12:19:19;;;;;;;;;;;;;;;17.13;48.73;101976.00;5081669;28;1177;-56
2023/01/02 12:22:03;;;;;;;;;;;;;;;16.98;48.82;101976.56;5084866;28;1085;-56
2023/01/02 12:24:28;;;;;;;;;;;;;;;17.51;48.84;101978.00;5096618;28;1065;-55
2023/01/02 12:26:54;;;;;;;;;;;;;;;17.05;48.71;101983.56;5097441;28;1026;-55
2023/01/02 12:29:32;;;;;;;;;;;;;;;17.69;48.89;101973.34;5096565;28;1101;-56
2023/01/02 12:32:10;;;;;;;;;;;;;;;17.28;49.24;101973.53;5094351;28;1005;-56
2023/01/02 12:34:35;;;;;;;;;;;;;;;17.54;49.28;101971.19;5096680;28;1917;-55
2023/01/02 12:37:21;;;;;;;;;;;;;;;18.01;48.48;101981.81;5080719;28;1188;-55
2023/01/02 12:39:48;;;;;;;;;;;;;;;17.15;49.01;101980.16;5084203;28;1649;-55
2023/01/02 12:42:33;;;;;;;;;;;;;;;17.20;48.97;101971.19;5095875;28;1085;-56
2023/01/02 12:44:58;;;;;;;;;;;;;;;17.55;49.17;101979.19;5096196;28;1058;-55
2023/01/02 12:47:40;;;;;;;;;;;;;;;17.12;48.65;101975.16;5095247;28;1027;-55
2023/01/02 12:50:15;;;;;;;;;;;;;;;17.49;48.85;101985.69;5095418;28;1140;-55
2023/01/02 12:52:49;;;;;;;;;;;;;;;17.38;48.98;101979.19;5096028;28;1974;-55
2023/01/02 12:55:24;;;;;;;;;;;;;;;17.15;49.10;101977.41;5095878;28;1023;-55
2023/01/02 12:58:05;;;;;;;;;;;;;;;18.06;48.33;101973.66;5095965;28;1086;-55